Data for 05/24/2013

Time Sea-Level Adjusted Pressure Absolute Pressure Temperature Relative Humidity Dew Point   
(mb) (inHg) (mb) (inHg) (C) (F) (%) (C) (F)
00:05 1016 30 845 24.95 3.7 38.6 89 2.1 35.8
00:10 1016 30 845 24.95 3.5 38.4 90 2.1 35.8
00:15 1016 30 845 24.95 3.5 38.3 91 2.2 36
00:20 1016 30 845 24.95 3.4 38.2 92 2.3 36.1
00:25 1016 30 845 24.95 3.3 38 92 2.2 36
00:30 1016 30 845 24.95 3.3 37.9 92 2.2 35.9
00:35 1016 30 845 24.95 3.2 37.7 93 2.1 35.8
00:40 1016 30 845 24.95 3.1 37.5 91 1.8 35.2
00:45 1015 29.97 845 24.95 2.8 37.1 93 1.8 35.2
00:50 1015 29.97 844 24.92 2.8 37 93 1.7 35.1
00:55 1015 29.97 844 24.92 2.8 37 93 1.7 35.1
01:00 1015 29.97 844 24.92 2.8 37 93 1.7 35.1
01:05 1015 29.97 844 24.92 2.8 37 93 1.7 35
01:10 1015 29.97 844 24.92 2.8 37 92 1.6 34.9
01:15 1015 29.97 844 24.92 2.7 36.8 92 1.6 34.8
01:20 1015 29.97 844 24.92 2.6 36.6 92 1.4 34.6
01:25 1014 29.94 844 24.92 2.5 36.5 93 1.4 34.6
01:30 1014 29.94 843 24.89 2.5 36.5 92 1.4 34.5
01:35 1014 29.94 843 24.89 2.6 36.7 92 1.4 34.6
01:40 1014 29.94 843 24.89 2.7 36.8 92 1.4 34.6
01:45 1013 29.91 842 24.86 2.8 37 91 1.5 34.7
01:50 1013 29.91 842 24.86 2.8 37 91 1.4 34.5
01:55 1013 29.91 842 24.86 2.6 36.7 92 1.4 34.5
02:00 1013 29.91 843 24.89 2.6 36.7 92 1.4 34.6
02:05 1013 29.91 843 24.89 2.7 36.8 92 1.5 34.7
02:10 1013 29.91 843 24.89 2.8 37.1 91 1.5 34.8
02:15 1014 29.94 843 24.89 3 37.3 90 1.6 34.8
02:20 1014 29.94 843 24.89 3.2 37.8 88 1.5 34.7
02:25 1014 29.94 843 24.89 3.5 38.3 87 1.6 34.8
02:30 1014 29.94 843 24.89 3.7 38.7 87 1.8 35.3
02:35 1014 29.94 843 24.89 3.8 38.9 87 1.9 35.4
02:40 1014 29.94 844 24.92 3.6 38.6 87 1.7 35.1
02:45 1015 29.97 844 24.92 3.5 38.3 88 1.7 35.1
02:50 1015 29.97 844 24.92 3.5 38.3 87 1.6 34.8
02:55 1015 29.97 844 24.92 3.6 38.5 86 1.6 34.8
03:00 1015 29.97 844 24.92 3.8 38.8 87 1.7 35.1
03:05 1015 29.97 844 24.92 3.7 38.7 86 1.5 34.7
03:10 1015 29.97 844 24.92 3.6 38.6 86 1.6 34.8
03:15 1015 29.97 844 24.92 3.7 38.6 87 1.7 35
03:20 1015 29.97 844 24.92 3.6 38.5 89 2 35.6
03:25 1015 29.97 844 24.92 3.4 38.1 91 2 35.6
03:30 1015 29.97 844 24.92 3.1 37.6 92 1.9 35.4
03:35 1015 29.97 844 24.92 3.1 37.5 92 1.9 35.3
03:40 1015 29.97 844 24.92 3.1 37.5 91 1.8 35.2
03:45 1015 29.97 844 24.92 3 37.4 92 1.8 35.2
03:50 1015 29.97 844 24.92 2.9 37.2 93 1.8 35.2
03:55 1015 29.97 844 24.92 3 37.3 92 1.8 35.2
04:00 1016 30 845 24.95 3.2 37.8 87 1.2 34.2
04:05 1016 30 845 24.95 2.8 37.1 88 1 33.9
04:10 1016 30 845 24.95 3 37.3 83 0.3 32.5
04:15 1015 29.97 845 24.95 3.3 38 78 -0.1 31.8
04:20 1015 29.97 845 24.95 3.5 38.4 79 0.2 32.4
04:25 1015 29.97 845 24.95 3.6 38.4 80 0.4 32.7
04:30 1016 30 845 24.95 3.7 38.6 80 0.5 32.9
04:35 1016 30 845 24.95 3.8 38.8 79 0.5 32.8
04:40 1016 30 846 24.98 3.7 38.6 79 0.4 32.7
04:45 1016 30 846 24.98 4.3 39.7 74 -0 32
04:50 1017 30.03 846 24.98 3.8 38.9 84 1.3 34.4
04:55 1017 30.03 846 24.98 2.8 37 87 0.8 33.4
05:00 1017 30.03 846 24.98 2.5 36.5 87 0.6 33
05:05 1017 30.03 846 24.98 2.5 36.5 87 0.5 33
05:10 1017 30.03 846 24.98 2.6 36.7 87 0.7 33.3
05:15 1017 30.03 846 24.98 2.7 36.9 86 0.5 33
05:20 1017 30.03 846 24.98 2.8 37 85 0.6 33
05:25 1017 30.03 847 25.01 2.8 37.1 85 0.6 33
05:30 1017 30.03 847 25.01 2.8 37.1 85 0.6 33
05:35 1018 30.06 847 25.01 2.8 37.1 85 0.5 32.9
05:40 1018 30.06 847 25.01 2.9 37.2 83 0.4 32.6
05:45 1017 30.03 847 25.01 3 37.4 82 0.3 32.5
05:50 1017 30.03 847 25.01 3.2 37.7 82 0.4 32.6
05:55 1018 30.06 847 25.01 3.3 38 80 0.3 32.5
06:00 1018 30.06 847 25.01 3.5 38.2 80 0.3 32.5
06:05 1018 30.06 847 25.01 3.3 38 84 0.8 33.4
06:10 1018 30.06 847 25.01 3.3 38 80 0.2 32.4
06:15 1017 30.03 847 25.01 3.3 37.9 81 0.3 32.6
06:20 1017 30.03 847 25.01 3.5 38.2 79 0.2 32.3
06:25 1018 30.06 847 25.01 3.8 38.8 77 0.2 32.3
06:30 1017 30.03 847 25.01 4.2 39.5 77 0.5 32.9
06:35 1017 30.03 847 25.01 4.5 40.2 76 0.7 33.2
06:40 1017 30.03 846 24.98 5.3 41.5 71 0.4 32.7
06:45 1017 30.03 846 24.98 5 41 78 1.5 34.6
06:50 1017 30.03 846 24.98 4.7 40.4 76 0.9 33.6
06:55 1017 30.03 846 24.98 5.6 42 73 1 33.9
07:00 1017 30.03 846 24.98 6.7 44 67 1 33.8
07:05 1017 30.03 846 24.98 6.4 43.5 69 1.1 34.1
07:10 1017 30.03 846 24.98 6.2 43.1 66 0.2 32.4
07:15 1017 30.03 846 24.98 6.5 43.6 68 1 33.8
07:20 1017 30.03 846 24.98 7.2 45 65 1.1 34
07:25 1017 30.03 846 24.98 7.4 45.3 64 1 33.9
07:30 1017 30.03 846 24.98 7.1 44.8 69 1.8 35.2
07:35 1017 30.03 846 24.98 7.6 45.6 65 1.3 34.4
07:40 1017 30.03 846 24.98 7.1 44.8 67 1.4 34.5
07:45 1017 30.03 846 24.98 6.7 44 68 1.2 34.2
07:50 1017 30.03 846 24.98 7 44.6 67 1.2 34.2
07:55 1017 30.03 846 24.98 7.3 45.2 66 1.3 34.4
08:00 1017 30.03 846 24.98 8.5 47.4 60 1.3 34.3
08:05 1017 30.03 846 24.98 9.2 48.5 48 -1.2 29.9
08:10 1017 30.03 846 24.98 9.1 48.3 46 -1.9 28.6
08:15 1017 30.03 846 24.98 9.3 48.7 43 -2.5 27.5
08:20 1017 30.03 846 24.98 9.6 49.3 42 -2.6 27.3
08:25 1017 30.03 846 24.98 9.4 48.9 41 -3 26.6
08:30 1017 30.03 846 24.98 9.6 49.2 41 -2.9 26.9
08:35 1017 30.03 846 24.98 9.5 49 40 -3.3 26
08:40 1017 30.03 846 24.98 9.8 49.6 41 -2.8 26.9
08:45 1017 30.03 846 24.98 10.6 51.1 38 -3 26.5
08:50 1017 30.03 846 24.98 10.5 50.9 35 -4.3 24.3
08:55 1017 30.03 846 24.98 10.6 51.1 34 -4.6 23.8
09:00 1017 30.03 846 24.98 10.9 51.5 34 -4.3 24.2
09:05 1017 30.03 846 24.98 10.7 51.3 37 -3.4 25.9
09:10 1017 30.03 846 24.98 9.8 49.7 40 -3 26.5
09:15 1017 30.03 846 24.98 10.2 50.4 39 -3.2 26.2
09:20 1017 30.03 846 24.98 10.3 50.5 40 -2.8 27
09:25 1017 30.03 846 24.98 10.3 50.6 39 -2.9 26.8
09:30 1017 30.03 846 24.98 10.8 51.5 38 -3 26.6
09:35 1017 30.03 846 24.98 10.2 50.3 40 -2.8 26.9
09:40 1017 30.03 846 24.98 10.5 50.8 41 -2.3 27.8
09:45 1017 30.03 846 24.98 10.6 51 36 -4 24.9
09:50 1017 30.03 846 24.98 11 51.7 37 -3.1 26.3
09:55 1017 30.03 846 24.98 10.9 51.6 33 -4.7 23.5
10:00 1017 30.03 846 24.98 10.9 51.6 31 -5.5 22.1
10:05 1017 30.03 846 24.98 10.9 51.6 33 -4.7 23.5
10:10 1017 30.03 846 24.98 11 51.8 32 -5 23
10:15 1017 30.03 846 24.98 11.3 52.3 30 -5.8 21.6
10:20 1017 30.03 846 24.98 11.7 53.1 29 -5.7 21.8
10:25 1017 30.03 846 24.98 12.1 53.7 24 -8 17.7
10:30 1017 30.03 846 24.98 12 53.5 25 -7.5 18.6
10:35 1017 30.03 846 24.98 11.8 53.2 26 -7.1 19.1
10:40 1017 30.03 846 24.98 12.1 53.8 24 -7.8 18
10:45 1017 30.03 846 24.98 12.4 54.2 26 -6.5 20.3
10:50 1017 30.03 846 24.98 12.8 55 25 -6.8 19.8
10:55 1017 30.03 846 24.98 12.9 55.2 24 -7 19.5
11:00 1017 30.03 846 24.98 12.9 55.1 25 -6.6 20.1
11:05 1017 30.03 846 24.98 12.5 54.5 26 -6.6 20
11:10 1017 30.03 846 24.98 12.3 54.2 25 -7.2 19
11:15 1016 30 846 24.98 12.5 54.6 25 -7.2 19.1
11:20 1016 30 846 24.98 13.3 55.9 24 -6.9 19.6
11:25 1016 30 846 24.98 12.9 55.3 25 -6.7 19.9
11:30 1016 30 846 24.98 13.6 56.5 23 -7.1 19.2
11:35 1016 30 846 24.98 13.7 56.7 24 -6.6 20.1
11:40 1016 30 846 24.98 14.1 57.4 23 -6.9 19.6
11:45 1016 30 846 24.98 14.3 57.7 26 -4.7 23.5
11:50 1016 30 846 24.98 13.7 56.7 27 -4.9 23.1
11:55 1016 30 846 24.98 14.7 58.5 24 -5.5 22.2
12:00 1016 30 846 24.98 14.8 58.7 27 -4.1 24.6
12:05 1016 30 846 24.98 15.2 59.3 24 -5 23
12:10 1016 30 846 24.98 14.5 58.1 27 -4.4 24.1
12:15 1016 30 845 24.95 14.8 58.6 25 -5.1 22.8
12:20 1016 30 845 24.95 15.5 59.9 23 -5.2 22.6
12:25 1016 30 845 24.95 15.9 60.7 24 -4.6 23.8
12:30 1016 30 845 24.95 15.8 60.5 23 -5.4 22.2
12:35 1016 30 845 24.95 15.8 60.5 24 -4.6 23.7
12:40 1016 30 845 24.95 15 59 23 -6 21.2
12:45 1016 30 845 24.95 14.3 57.7 23 -6.7 20
12:50 1016 30 845 24.95 14.3 57.7 23 -6.3 20.7
12:55 1016 30 845 24.95 14.1 57.4 22 -7.1 19.1
13:00 1016 30 845 24.95 14 57.2 22 -7.4 18.7
13:05 1016 30 845 24.95 14.7 58.4 22 -6.6 20.1
13:10 1016 30 845 24.95 15.1 59.2 22 -6.3 20.6
13:15 1016 30 845 24.95 16.2 61.1 20 -6.5 20.4
13:20 1016 30 845 24.95 16.5 61.6 21 -5.8 21.5
13:25 1016 30 845 24.95 15.3 59.6 21 -7.1 19.2
13:30 1016 30 845 24.95 14.9 58.9 20 -7.6 18.4
13:35 1016 30 845 24.95 15.4 59.6 20 -7.3 18.9
13:40 1016 30 845 24.95 15.9 60.5 20 -6.7 19.9
13:45 1016 30 845 24.95 15.8 60.4 21 -6.6 20.2
13:50 1016 30 845 24.95 15.5 59.9 21 -6.9 19.6
13:55 1016 30 845 24.95 15.6 60 22 -6 21.3
14:00 1016 30 845 24.95 15.8 60.4 23 -5.2 22.7
14:05 1016 30 845 24.95 16 60.7 21 -6.4 20.5
14:10 1016 30 845 24.95 15.9 60.6 20 -6.9 19.5
14:15 1016 30 845 24.95 15.9 60.5 19 -7.4 18.7
14:20 1016 30 845 24.95 15.7 60.2 19 -8.1 17.5
14:25 1015 29.97 845 24.95 15.6 60.1 19 -7.8 18
14:30 1015 29.97 845 24.95 15.8 60.4 19 -7.6 18.4
14:35 1015 29.97 845 24.95 16 60.8 18 -8.3 17
14:40 1015 29.97 845 24.95 16.1 60.9 19 -7.3 18.8
14:45 1015 29.97 845 24.95 16.4 61.6 19 -7 19.4
14:50 1015 29.97 845 24.95 16.7 62 17 -8.7 16.3
14:55 1015 29.97 844 24.92 16.8 62.2 17 -8 17.6
15:00 1015 29.97 844 24.92 16.6 61.9 19 -7.3 18.9
15:05 1015 29.97 844 24.92 16.2 61.2 17 -8.9 16
15:10 1015 29.97 844 24.92 16 60.8 17 -9 15.7
15:15 1015 29.97 844 24.92 15.7 60.2 17 -9.2 15.4
15:20 1015 29.97 844 24.92 16.1 60.9 21 -6.2 20.8
15:25 1015 29.97 844 24.92 15.9 60.6 18 -8.5 16.6
15:30 1015 29.97 844 24.92 15.9 60.5 19 -7.5 18.5
15:35 1015 29.97 844 24.92 16.3 61.3 19 -7.6 18.3
15:40 1015 29.97 844 24.92 16.1 60.9 19 -7.4 18.7
15:45 1015 29.97 844 24.92 16 60.9 20 -6.9 19.5
15:50 1015 29.97 844 24.92 15.9 60.7 19 -7.6 18.3
15:55 1015 29.97 844 24.92 15.9 60.7 19 -7.3 18.9
16:00 1015 29.97 844 24.92 16.2 61.1 18 -8.2 17.2
16:05 1015 29.97 844 24.92 16.4 61.4 19 -7 19.4
16:10 1015 29.97 844 24.92 16.4 61.4 18 -7.7 18.1
16:15 1015 29.97 844 24.92 16.1 61 18 -7.9 17.7
16:20 1015 29.97 844 24.92 16.5 61.6 19 -6.8 19.7
16:25 1015 29.97 844 24.92 16.5 61.7 20 -6.7 19.9
16:30 1015 29.97 844 24.92 16.5 61.7 21 -5.6 22
16:35 1015 29.97 844 24.92 16.8 62.3 21 -5.8 21.6
16:40 1015 29.97 844 24.92 16.4 61.5 22 -5.1 22.7
16:45 1015 29.97 844 24.92 16.1 61 23 -5.2 22.6
16:50 1015 29.97 844 24.92 16.5 61.8 18 -7.9 17.8
16:55 1015 29.97 844 24.92 16.8 62.2 18 -7.7 18.1
17:00 1015 29.97 844 24.92 16.8 62.2 17 -8 17.6
17:05 1015 29.97 844 24.92 16.5 61.8 17 -8.5 16.6
17:10 1015 29.97 844 24.92 16.5 61.8 17 -8.3 17.1
17:15 1015 29.97 844 24.92 16.5 61.7 18 -7.6 18.4
17:20 1015 29.97 844 24.92 16.6 61.9 17 -8.4 16.9
17:25 1015 29.97 844 24.92 16.3 61.3 18 -8.1 17.4
17:30 1015 29.97 844 24.92 16.2 61.1 17 -8.8 16.2
17:35 1015 29.97 844 24.92 16.2 61.1 16 -9.8 14.4
17:40 1015 29.97 844 24.92 16.5 61.7 17 -8.3 17.1
17:45 1015 29.97 844 24.92 16.6 61.9 16 -9.1 15.6
17:50 1015 29.97 844 24.92 16.5 61.7 18 -7.6 18.4
17:55 1015 29.97 844 24.92 16.5 61.7 19 -7.3 18.9
18:00 1015 29.97 844 24.92 16.5 61.8 15 -9.8 14.3
18:05 1015 29.97 844 24.92 16.6 61.9 16 -8.9 16
18:10 1015 29.97 844 24.92 16.7 62.1 15 -9.6 14.8
18:15 1015 29.97 844 24.92 16.4 61.6 15 -9.9 14.3
18:20 1015 29.97 844 24.92 16.2 61.2 16 -9.2 15.4
18:25 1015 29.97 844 24.92 16.3 61.3 16 -9.2 15.5
18:30 1015 29.97 844 24.92 16.4 61.6 16 -9.1 15.7
18:35 1015 29.97 844 24.92 16.5 61.7 16 -9.3 15.2
18:40 1015 29.97 844 24.92 16.6 61.8 18 -7.7 18.2
18:45 1015 29.97 844 24.92 16.5 61.7 18 -8.1 17.5
18:50 1015 29.97 844 24.92 16.4 61.5 18 -7.8 17.9
18:55 1015 29.97 844 24.92 16.3 61.3 19 -7.4 18.7
19:00 1015 29.97 844 24.92 16.3 61.3 17 -8.6 16.4
19:05 1015 29.97 844 24.92 16.4 61.6 17 -8.6 16.6
19:10 1015 29.97 844 24.92 16.4 61.5 19 -7.4 18.7
19:15 1015 29.97 844 24.92 16.2 61.2 19 -7.3 18.8
19:20 1015 29.97 844 24.92 16.1 61 19 -7.4 18.7
19:25 1015 29.97 844 24.92 16 60.8 19 -7.4 18.8
19:30 1015 29.97 844 24.92 16 60.8 20 -6.9 19.6
19:35 1015 29.97 844 24.92 15.9 60.6 20 -6.9 19.7
19:40 1015 29.97 844 24.92 15.6 60.1 22 -6.2 20.9
19:45 1015 29.97 844 24.92 15.4 59.8 24 -4.9 23.2
19:50 1015 29.97 844 24.92 15.5 59.9 20 -7.5 18.6
19:55 1015 29.97 844 24.92 15.5 59.9 22 -6.1 21
20:00 1015 29.97 845 24.95 15.2 59.3 23 -5.6 21.9
20:05 1015 29.97 845 24.95 14.8 58.7 23 -5.8 21.5
20:10 1015 29.97 845 24.95 14.5 58.2 24 -5.8 21.6
20:15 1015 29.97 845 24.95 14.4 57.9 23 -6.2 20.8
20:20 1015 29.97 845 24.95 14.5 58.1 23 -6.3 20.6
20:25 1015 29.97 845 24.95 14.4 57.8 24 -5.8 21.6
20:30 1016 30 845 24.95 14.1 57.3 24 -6 21.2
20:35 1016 30 845 24.95 13.9 57.1 26 -5.4 22.3
20:40 1016 30 845 24.95 13.8 56.8 26 -5.3 22.5
20:45 1016 30 845 24.95 13.6 56.5 26 -5.3 22.4
20:50 1016 30 845 24.95 13.5 56.4 27 -5.1 22.8
20:55 1016 30 845 24.95 13.4 56.1 29 -4.2 24.4
21:00 1016 30 845 24.95 13 55.4 31 -3.8 25.1
21:05 1016 30 845 24.95 12.5 54.5 31 -3.9 24.9
21:10 1016 30 845 24.95 12.2 53.9 32 -3.9 24.9
21:15 1016 30 845 24.95 12.1 53.8 33 -3.8 25.1
21:20 1016 30 845 24.95 11.8 53.3 33 -3.7 25.3
21:25 1016 30 845 24.95 11.7 53 33 -3.9 25
21:30 1016 30 845 24.95 11.6 52.8 34 -3.9 25
21:35 1016 30 845 24.95 11.4 52.4 35 -3.6 25.6
21:40 1016 30 845 24.95 11.2 52.1 34 -4.2 24.5
21:45 1016 30 845 24.95 11.3 52.4 33 -4.3 24.3
21:50 1016 30 845 24.95 11.1 52 34 -4.1 24.5
21:55 1016 30 845 24.95 10.9 51.5 36 -3.4 25.8
22:00 1016 30 845 24.95 10.6 51.1 36 -3.8 25.1
22:05 1016 30 845 24.95 10.9 51.5 33 -4.7 23.5
22:10 1016 30 845 24.95 11.2 52.2 31 -5.5 22.2
22:15 1016 30 845 24.95 11.4 52.5 32 -4.8 23.4
22:20 1016 30 845 24.95 11 51.8 33 -4.6 23.8
22:25 1016 30 845 24.95 10.8 51.5 35 -3.9 25.1
22:30 1016 30 845 24.95 10.3 50.6 38 -3.5 25.8
22:35 1016 30 845 24.95 10 50.1 38 -3.4 25.8
22:40 1016 30 845 24.95 9.9 49.8 39 -3.4 25.8
22:45 1016 30 845 24.95 9.9 49.8 37 -4.2 24.5
22:50 1016 30 845 24.95 10.1 50.2 36 -4.2 24.5
22:55 1016 30 845 24.95 10.2 50.3 33 -5.3 22.5
23:00 1016 30 845 24.95 10.3 50.6 36 -4 24.8
23:05 1016 30 845 24.95 10.4 50.7 34 -4.9 23.3
23:10 1016 30 845 24.95 10.4 50.8 35 -4.2 24.4
23:15 1016 30 845 24.95 10.4 50.6 36 -4.1 24.6
23:20 1016 30 845 24.95 10.2 50.3 38 -3.3 26.1
23:25 1016 30 845 24.95 10.1 50.2 38 -3.7 25.3
23:30 1016 30 845 24.95 10 50 39 -3.4 25.8
23:35 1016 30 845 24.95 9.8 49.6 39 -3.5 25.7
23:40 1016 30 845 24.95 9.6 49.2 42 -2.6 27.3
23:45 1016 30 845 24.95 9 48.1 45 -2.4 27.7
23:50 1016 30 845 24.95 8.6 47.4 45 -2.6 27.2
23:55 1016 30 845 24.95 8.4 47.2 47 -2.2 28
24:00 1016 30 845 24.95 8.2 46.8 48 -2.1 28.2